KCUL

Carmi Municipal Airport

Carmi, Illinois, USA
METAR KCUL 171453Z AUTO 31008KT 10SM CLR 04/01 A3026 RMK AO2
Observed Flight Rules
Dec-17 @ 14:53 UTC (29 minutes ago) Visual Flight Rules
Wind Visibility Clouds
310° at 8 knots 10 miles
  • Clear skies
Temperatures Readings
Current 4°C / 39°F
Dewpoint 1°C / 34°F
Humidity 81%
Altimeter 30.26" Hg
Pressure 1025 hPa
Elevation 118
METAR KCUL 171453Z AUTO 31008KT 10SM CLR 04/01 A3026 RMK AO2
Observed Flight Rules
Dec-17 @ 14:53 UTC
(29 minutes ago)
VFR
Wind Visibility
310° at 8 knots 10 miles
Clouds
  • Clear skies
Temperature Dewpoint
4°C / 39°F 1°C / 34°F
Humidity Altimeter Pressure
81% 30.26" Hg 1025 hPa